createdAt,value
2023-02-28T00:00:11.103Z,4.77
2023-02-28T00:02:57.815Z,4.44
2023-02-28T00:05:44.260Z,4.20
2023-02-28T00:08:30.759Z,4.40
2023-02-28T00:11:18.289Z,5.07
2023-02-28T00:14:04.695Z,4.84
2023-02-28T00:16:52.224Z,5.10
2023-02-28T00:19:38.600Z,4.90
2023-02-28T00:22:25.008Z,4.69
2023-02-28T00:25:13.792Z,4.99
2023-02-28T00:28:00.246Z,4.83
2023-02-28T00:30:47.015Z,4.56
2023-02-28T00:33:35.232Z,4.31
2023-02-28T00:36:21.536Z,4.41
2023-02-28T00:39:07.943Z,4.85
2023-02-28T00:41:54.575Z,4.40
2023-02-28T00:44:41.158Z,4.38
2023-02-28T00:47:27.325Z,4.43
2023-02-28T00:50:15.288Z,4.67
2023-02-28T00:53:01.519Z,4.93
2023-02-28T00:55:47.706Z,4.98
2023-02-28T00:58:34.295Z,5.38
2023-02-28T01:01:20.901Z,5.33
2023-02-28T01:04:07.853Z,5.23
2023-02-28T01:06:57.028Z,5.14
2023-02-28T01:09:43.163Z,5.68
2023-02-28T01:12:31.003Z,5.56
2023-02-28T01:15:17.615Z,5.60
2023-02-28T01:18:05.242Z,5.77
2023-02-28T01:20:52.715Z,5.87
2023-02-28T01:23:40.752Z,5.51
2023-02-28T01:26:27.094Z,5.80
2023-02-28T01:29:13.418Z,4.81
2023-02-28T01:32:00.507Z,3.12
2023-02-28T01:34:47.017Z,2.59
2023-02-28T01:37:33.348Z,2.65
2023-02-28T01:40:21.586Z,2.57
2023-02-28T01:43:21.005Z,3.23
2023-02-28T01:46:07.299Z,3.07
2023-02-28T01:48:59.062Z,4.04
2023-02-28T01:51:51.736Z,4.50
2023-02-28T01:54:38.645Z,4.30
2023-02-28T01:57:34.562Z,4.46
2023-02-28T02:00:25.288Z,4.76
2023-02-28T02:03:17.242Z,4.87
2023-02-28T02:06:04.136Z,4.85
2023-02-28T02:08:50.788Z,5.37
2023-02-28T02:11:38.080Z,5.10
2023-02-28T02:14:39.972Z,5.28
2023-02-28T02:17:33.064Z,5.42
2023-02-28T02:20:48.547Z,5.67
2023-02-28T02:24:19.963Z,5.35
2023-02-28T02:27:19.082Z,5.19
2023-02-28T02:30:45.446Z,4.87
2023-02-28T02:34:04.183Z,5.04
2023-02-28T02:36:55.628Z,5.20
2023-02-28T02:39:51.059Z,5.22
2023-02-28T02:42:44.113Z,5.05
2023-02-28T02:45:36.784Z,5.08
2023-02-28T02:48:27.381Z,5.14
2023-02-28T02:51:15.691Z,5.24
2023-02-28T02:54:10.195Z,5.11
2023-02-28T02:56:59.692Z,4.76
2023-02-28T02:59:46.659Z,4.97
2023-02-28T03:02:35.199Z,5.23
2023-02-28T03:05:26.821Z,5.52
2023-02-28T03:08:13.331Z,5.62
2023-02-28T03:11:02.944Z,5.66
2023-02-28T03:14:18.499Z,5.63
2023-02-28T03:17:32.920Z,5.32
2023-02-28T03:20:34.471Z,5.10
2023-02-28T03:23:26.073Z,5.18
2023-02-28T03:26:21.390Z,5.26
2023-02-28T03:29:18.125Z,5.01
2023-02-28T03:32:15.387Z,5.15
2023-02-28T03:35:08.414Z,5.46
2023-02-28T03:38:01.984Z,5.39
2023-02-28T03:40:53.132Z,5.43
2023-02-28T03:43:45.385Z,5.48
2023-02-28T03:46:38.243Z,5.38
2023-02-28T03:49:29.058Z,5.25
2023-02-28T03:52:16.776Z,5.13
2023-02-28T03:55:10.110Z,5.06
2023-02-28T03:58:02.880Z,5.18
2023-02-28T04:00:57.268Z,5.43
2023-02-28T04:03:43.773Z,5.54
2023-02-28T04:06:33.508Z,5.42
2023-02-28T04:09:19.638Z,5.21
2023-02-28T04:12:06.465Z,4.92
2023-02-28T04:14:53.011Z,4.68
2023-02-28T04:17:40.522Z,4.81
2023-02-28T04:20:26.622Z,4.66
2023-02-28T04:23:12.746Z,4.38
2023-02-28T04:25:59.243Z,4.24
2023-02-28T04:28:45.632Z,4.18
2023-02-28T04:31:32.361Z,3.99
2023-02-28T04:34:20.862Z,3.78
2023-02-28T04:37:13.667Z,4.15
2023-02-28T04:40:00.845Z,4.06
2023-02-28T04:42:47.439Z,3.69
2023-02-28T04:45:34.788Z,3.75
2023-02-28T04:48:22.399Z,3.76
2023-02-28T04:51:11.623Z,3.77
2023-02-28T04:53:59.024Z,4.37
2023-02-28T04:56:45.182Z,4.22
2023-02-28T04:59:31.623Z,3.96
2023-02-28T05:02:18.115Z,3.66
2023-02-28T05:05:04.772Z,3.51
2023-02-28T05:07:52.316Z,3.71
2023-02-28T05:10:38.856Z,3.43
2023-02-28T05:13:25.093Z,3.18
2023-02-28T05:16:11.593Z,2.75
2023-02-28T05:18:57.972Z,3.26
2023-02-28T05:21:53.174Z,2.74
2023-02-28T05:24:40.581Z,2.98
2023-02-28T05:27:26.882Z,3.20
2023-02-28T05:30:13.803Z,3.11
2023-02-28T05:33:00.646Z,3.15
2023-02-28T05:35:47.194Z,3.56
2023-02-28T05:38:33.682Z,3.18
2023-02-28T05:41:22.150Z,3.24
2023-02-28T05:44:08.436Z,3.52
2023-02-28T05:46:54.925Z,3.53
2023-02-28T05:49:41.452Z,3.83
2023-02-28T05:52:27.943Z,3.63
2023-02-28T05:55:14.291Z,3.61
2023-02-28T05:58:01.789Z,4.23
2023-02-28T06:00:48.178Z,3.30
2023-02-28T06:03:34.512Z,3.87
2023-02-28T06:06:20.814Z,2.05
2023-02-28T06:09:07.237Z,2.02
2023-02-28T06:11:55.036Z,2.23
2023-02-28T06:14:42.746Z,2.23
2023-02-28T06:17:29.306Z,2.28
2023-02-28T06:20:15.372Z,3.68
2023-02-28T06:23:01.607Z,3.82
2023-02-28T06:25:48.768Z,4.26
2023-02-28T06:28:35.053Z,4.35
2023-02-28T06:31:23.168Z,4.28
2023-02-28T06:34:09.547Z,4.15
2023-02-28T06:36:56.023Z,3.97
2023-02-28T06:39:42.449Z,4.03
2023-02-28T06:42:29.650Z,3.52
2023-02-28T06:45:16.367Z,3.33
2023-02-28T06:48:04.413Z,3.84
2023-02-28T06:50:50.816Z,3.34
2023-02-28T06:53:37.982Z,3.64
2023-02-28T06:56:24.376Z,3.63
2023-02-28T06:59:11.032Z,3.40
2023-02-28T07:01:57.771Z,3.47
2023-02-28T07:04:45.753Z,3.63
2023-02-28T07:07:33.202Z,3.31
2023-02-28T07:10:20.420Z,3.39
2023-02-28T07:13:08.831Z,3.28
2023-02-28T07:15:56.529Z,3.58
2023-02-28T07:18:42.851Z,3.93
2023-02-28T07:21:31.142Z,4.20
2023-02-28T07:24:18.953Z,4.18
2023-02-28T07:27:05.279Z,3.90
2023-02-28T07:29:51.747Z,3.76
2023-02-28T07:32:38.827Z,4.07
2023-02-28T07:35:25.535Z,4.18
2023-02-28T07:38:14.590Z,4.38
2023-02-28T07:41:00.656Z,4.41
2023-02-28T07:43:47.559Z,3.85
2023-02-28T07:46:36.620Z,3.93
2023-02-28T07:49:23.657Z,4.27
2023-02-28T07:52:12.232Z,4.57
2023-02-28T07:55:00.292Z,4.75
2023-02-28T07:57:46.840Z,4.57
2023-02-28T08:00:33.662Z,4.22
2023-02-28T08:03:21.966Z,4.11
2023-02-28T08:06:18.029Z,4.20
2023-02-28T08:09:04.877Z,4.42
2023-02-28T08:11:52.724Z,4.82
2023-02-28T08:14:40.579Z,4.56
2023-02-28T08:17:26.952Z,4.03
2023-02-28T08:20:14.297Z,4.49
2023-02-28T08:23:00.645Z,3.91
2023-02-28T08:25:46.984Z,4.99
2023-02-28T08:28:35.271Z,4.20
2023-02-28T08:31:21.837Z,4.99
2023-02-28T08:34:08.668Z,4.20
2023-02-28T08:36:55.289Z,4.86
2023-02-28T08:39:41.707Z,4.11
2023-02-28T08:42:27.904Z,4.43
2023-02-28T08:45:16.772Z,4.42
2023-02-28T08:48:03.456Z,4.34
2023-02-28T08:51:06.730Z,4.82
2023-02-28T08:53:54.842Z,4.64
2023-02-28T08:56:41.293Z,4.58
2023-02-28T08:59:27.676Z,4.68
2023-02-28T09:02:16.579Z,4.57
2023-02-28T09:05:04.044Z,4.79
2023-02-28T09:07:51.528Z,4.96
2023-02-28T09:10:37.748Z,4.96
2023-02-28T09:13:24.472Z,4.77
2023-02-28T09:16:13.447Z,4.97
2023-02-28T09:19:01.174Z,4.57
2023-02-28T09:21:47.537Z,4.45
2023-02-28T09:24:33.998Z,4.56
2023-02-28T09:27:20.267Z,5.17
2023-02-28T09:30:08.156Z,5.38
2023-02-28T09:32:54.722Z,5.16
2023-02-28T09:35:43.768Z,5.61
2023-02-28T09:38:30.543Z,5.24
2023-02-28T09:41:18.967Z,5.08
2023-02-28T09:44:09.119Z,5.55
2023-02-28T09:47:00.262Z,6.11
2023-02-28T09:49:48.908Z,5.81
2023-02-28T09:52:36.695Z,5.51
2023-02-28T09:55:35.319Z,5.31
2023-02-28T09:58:33.864Z,5.91
2023-02-28T10:01:28.466Z,5.90
2023-02-28T10:04:27.177Z,5.70
2023-02-28T10:07:24.599Z,6.49
2023-02-28T10:10:23.411Z,6.74
2023-02-28T10:13:18.740Z,6.71
2023-02-28T10:16:10.449Z,6.24
2023-02-28T10:19:06.261Z,6.53
2023-02-28T10:21:58.958Z,6.65
2023-02-28T10:24:47.369Z,7.12
2023-02-28T10:27:35.989Z,6.16
2023-02-28T10:30:22.510Z,7.32
2023-02-28T10:33:21.137Z,6.82
2023-02-28T10:36:08.521Z,7.63
2023-02-28T10:38:55.710Z,6.54
2023-02-28T10:41:45.424Z,6.33
2023-02-28T10:44:33.439Z,6.77
2023-02-28T10:47:21.645Z,7.19
2023-02-28T10:50:28.278Z,7.16
2023-02-28T10:53:30.236Z,7.13
2023-02-28T10:56:22.047Z,7.06
2023-02-28T10:59:30.319Z,6.30
2023-02-28T11:02:37.608Z,6.50
2023-02-28T11:05:32.725Z,6.76
2023-02-28T11:08:20.406Z,7.04
2023-02-28T11:11:08.224Z,7.14
2023-02-28T11:13:56.388Z,7.00
2023-02-28T11:16:42.668Z,7.18
2023-02-28T11:19:39.374Z,7.08
2023-02-28T11:22:29.780Z,6.57
2023-02-28T11:25:23.797Z,6.88
2023-02-28T11:28:27.402Z,7.07
2023-02-28T11:31:20.483Z,6.93
2023-02-28T11:34:26.796Z,7.27
2023-02-28T11:37:17.774Z,7.11
2023-02-28T11:40:14.774Z,7.41
2023-02-28T11:43:11.337Z,7.38
2023-02-28T11:46:08.926Z,7.22
2023-02-28T11:49:05.142Z,7.33
2023-02-28T11:51:59.442Z,6.77
2023-02-28T11:55:03.966Z,7.89
2023-02-28T11:58:12.630Z,7.41
2023-02-28T12:01:17.538Z,8.18
2023-02-28T12:04:17.793Z,8.36
2023-02-28T12:07:15.280Z,8.67
2023-02-28T12:10:11.360Z,8.20
2023-02-28T12:13:15.646Z,7.96
2023-02-28T12:16:20.995Z,8.33
2023-02-28T12:19:21.039Z,7.91
2023-02-28T12:22:29.828Z,7.61
2023-02-28T12:25:44.506Z,8.92
2023-02-28T12:28:36.498Z,8.30
2023-02-28T12:31:25.998Z,8.92
2023-02-28T12:34:17.521Z,8.33
2023-02-28T12:37:08.546Z,8.76
2023-02-28T12:40:02.310Z,8.74
2023-02-28T12:42:53.898Z,7.69
2023-02-28T12:45:44.232Z,8.18
2023-02-28T12:48:39.419Z,9.05
2023-02-28T12:51:28.147Z,7.39
2023-02-28T12:54:25.552Z,7.09
2023-02-28T12:57:17.430Z,6.96
2023-02-28T13:00:13.050Z,7.59
2023-02-28T13:03:22.866Z,8.03
2023-02-28T13:06:43.039Z,7.98
2023-02-28T13:09:30.567Z,8.06
2023-02-28T13:12:18.555Z,7.47
2023-02-28T13:15:22.243Z,7.50
2023-02-28T13:18:33.064Z,7.94
2023-02-28T13:21:26.178Z,7.92
2023-02-28T13:24:33.727Z,8.03
2023-02-28T13:27:26.592Z,8.64
2023-02-28T13:30:50.355Z,9.85
2023-02-28T13:33:45.228Z,9.48
2023-02-28T13:36:33.064Z,8.99
2023-02-28T13:39:47.775Z,9.54
2023-02-28T13:42:38.154Z,9.24
2023-02-28T13:45:30.954Z,10.89
2023-02-28T13:48:21.173Z,11.60
2023-02-28T13:51:44.272Z,7.39
2023-02-28T13:54:43.111Z,7.15
2023-02-28T13:57:41.636Z,6.99
2023-02-28T14:00:46.070Z,7.10
2023-02-28T14:03:56.391Z,6.69
2023-02-28T14:06:50.490Z,6.73
2023-02-28T14:09:40.450Z,7.06
2023-02-28T14:12:58.665Z,7.18
2023-02-28T14:15:58.725Z,7.03
2023-02-28T14:18:51.764Z,6.99
2023-02-28T14:21:45.942Z,7.07
2023-02-28T14:24:53.580Z,7.15
2023-02-28T14:27:50.008Z,6.98
2023-02-28T14:31:12.561Z,6.97
2023-02-28T14:34:37.474Z,6.94
2023-02-28T14:37:31.055Z,7.12
2023-02-28T14:40:22.265Z,6.93
2023-02-28T14:43:22.430Z,7.09
2023-02-28T14:46:08.928Z,7.13
2023-02-28T14:48:55.469Z,6.98
2023-02-28T14:51:41.784Z,7.09
2023-02-28T14:54:28.270Z,7.13
2023-02-28T14:57:25.706Z,7.04
2023-02-28T15:00:18.009Z,7.24
2023-02-28T15:03:22.025Z,7.03
2023-02-28T15:06:15.382Z,7.02
2023-02-28T15:09:17.940Z,6.62
2023-02-28T15:12:04.519Z,6.60
2023-02-28T15:14:52.609Z,6.52
2023-02-28T15:17:38.971Z,6.66
2023-02-28T15:20:26.742Z,6.55
2023-02-28T15:23:13.842Z,6.87
2023-02-28T15:26:01.561Z,6.78
2023-02-28T15:28:48.182Z,6.80
2023-02-28T15:31:55.991Z,6.80
2023-02-28T15:34:45.161Z,6.73
2023-02-28T15:37:41.480Z,6.58
2023-02-28T15:40:30.654Z,6.51
2023-02-28T15:43:18.947Z,6.72
2023-02-28T15:46:08.356Z,6.87
2023-02-28T15:48:58.367Z,6.91
2023-02-28T15:51:45.309Z,6.85
2023-02-28T15:54:35.784Z,6.50
2023-02-28T15:57:25.909Z,6.91
2023-02-28T16:00:15.059Z,6.80
2023-02-28T16:03:01.820Z,6.58
2023-02-28T16:06:22.281Z,6.98
2023-02-28T16:09:12.032Z,7.34
2023-02-28T16:12:02.241Z,7.26
2023-02-28T16:14:49.460Z,7.40
2023-02-28T16:17:39.687Z,7.41
2023-02-28T16:20:28.736Z,8.05
2023-02-28T16:23:16.333Z,8.22
2023-02-28T16:26:02.981Z,8.09
2023-02-28T16:28:49.498Z,7.72
2023-02-28T16:31:39.609Z,7.64
2023-02-28T16:34:26.260Z,7.70
2023-02-28T16:37:15.516Z,7.63
2023-02-28T16:40:03.678Z,7.43
2023-02-28T16:42:53.082Z,7.50
2023-02-28T16:45:39.581Z,7.09
2023-02-28T16:48:27.039Z,6.51
2023-02-28T16:51:14.567Z,6.36
2023-02-28T16:54:01.037Z,6.26
2023-02-28T16:56:50.485Z,5.77
2023-02-28T16:59:37.093Z,5.35
2023-02-28T17:02:23.703Z,5.00
2023-02-28T17:05:13.232Z,5.25
2023-02-28T17:08:00.137Z,5.08
2023-02-28T17:10:46.921Z,4.76
2023-02-28T17:13:35.412Z,4.73
2023-02-28T17:16:27.467Z,4.53
2023-02-28T17:19:15.846Z,4.86
2023-02-28T17:22:02.042Z,6.46
2023-02-28T17:24:48.769Z,7.44
2023-02-28T17:27:34.872Z,8.02
2023-02-28T17:30:25.002Z,7.89
2023-02-28T17:33:11.461Z,7.98
2023-02-28T17:35:57.781Z,8.25
2023-02-28T17:38:44.147Z,7.38
2023-02-28T17:41:31.336Z,6.99
2023-02-28T17:44:17.550Z,4.90
2023-02-28T17:47:05.897Z,3.98
2023-02-28T17:49:52.382Z,4.44
2023-02-28T17:52:38.987Z,4.35
2023-02-28T17:55:25.433Z,5.12
2023-02-28T17:58:13.624Z,5.43
2023-02-28T18:01:00.396Z,5.97
2023-02-28T18:03:48.189Z,5.93
2023-02-28T18:06:46.895Z,6.10
2023-02-28T18:09:33.345Z,6.23
2023-02-28T18:12:20.013Z,6.81
2023-02-28T18:15:07.798Z,7.22
2023-02-28T18:17:53.939Z,6.98
2023-02-28T18:20:41.891Z,7.02
2023-02-28T18:23:28.479Z,6.94
2023-02-28T18:26:15.349Z,7.32
2023-02-28T18:29:01.961Z,7.45
2023-02-28T18:31:48.897Z,8.05
2023-02-28T18:34:35.282Z,8.47
2023-02-28T18:37:24.729Z,8.88
2023-02-28T18:40:12.436Z,8.59
2023-02-28T18:42:58.801Z,8.69
2023-02-28T18:45:45.471Z,9.24
2023-02-28T18:48:31.976Z,8.84
2023-02-28T18:51:21.612Z,9.45
2023-02-28T18:54:09.962Z,9.78
2023-02-28T18:56:56.531Z,8.93
2023-02-28T18:59:42.947Z,8.97
2023-02-28T19:02:29.394Z,7.94
2023-02-28T19:05:16.080Z,7.28
2023-02-28T19:08:02.607Z,5.43
2023-02-28T19:10:50.566Z,5.55
2023-02-28T19:13:37.470Z,8.23
2023-02-28T19:16:25.432Z,10.25
2023-02-28T19:19:11.897Z,10.47
2023-02-28T19:21:58.417Z,10.65
2023-02-28T19:24:44.818Z,10.58
2023-02-28T19:27:32.712Z,11.54
2023-02-28T19:30:19.267Z,11.90
2023-02-28T19:33:05.761Z,12.25
2023-02-28T19:35:52.178Z,12.36
2023-02-28T19:38:38.768Z,9.04
2023-02-28T19:41:25.258Z,7.57
2023-02-28T19:44:13.003Z,7.09
2023-02-28T19:46:59.299Z,6.64
2023-02-28T19:49:46.282Z,6.22
2023-02-28T19:52:32.413Z,6.12
2023-02-28T19:55:19.512Z,6.15
2023-02-28T19:58:06.161Z,6.04
2023-02-28T20:00:54.082Z,6.14
2023-02-28T20:03:41.201Z,6.07
2023-02-28T20:06:27.256Z,6.02
2023-02-28T20:09:13.622Z,5.89
2023-02-28T20:12:00.584Z,5.29
2023-02-28T20:14:47.379Z,5.36
2023-02-28T20:17:35.031Z,5.51
2023-02-28T20:20:21.509Z,5.77
2023-02-28T20:23:08.020Z,5.60
2023-02-28T20:25:54.625Z,5.58
2023-02-28T20:28:41.112Z,5.47
2023-02-28T20:31:28.593Z,5.59
2023-02-28T20:34:17.693Z,6.04
2023-02-28T20:37:04.223Z,5.94
2023-02-28T20:39:52.909Z,5.84
2023-02-28T20:42:39.356Z,5.75
2023-02-28T20:45:25.717Z,5.66
2023-02-28T20:48:12.313Z,5.65
2023-02-28T20:51:00.958Z,5.42
2023-02-28T20:53:47.659Z,5.04
2023-02-28T20:56:34.327Z,4.99
2023-02-28T20:59:22.238Z,4.92
2023-02-28T21:02:10.587Z,4.85
2023-02-28T21:04:57.046Z,4.76
2023-02-28T21:07:44.821Z,4.59
2023-02-28T21:10:32.209Z,4.68
2023-02-28T21:13:18.369Z,4.43
2023-02-28T21:16:06.237Z,4.12
2023-02-28T21:18:53.929Z,4.47
2023-02-28T21:21:43.782Z,4.24
2023-02-28T21:24:31.212Z,4.22
2023-02-28T21:27:17.642Z,4.24
2023-02-28T21:30:05.628Z,4.39
2023-02-28T21:32:52.161Z,4.41
2023-02-28T21:35:38.488Z,4.07
2023-02-28T21:38:24.737Z,4.45
2023-02-28T21:41:15.490Z,4.06
2023-02-28T21:44:01.930Z,4.13
2023-02-28T21:46:49.377Z,4.11
2023-02-28T21:49:37.537Z,4.25
2023-02-28T21:52:23.942Z,4.58
2023-02-28T21:55:10.492Z,4.20
2023-02-28T21:57:58.118Z,4.22
2023-02-28T22:00:45.973Z,3.94
2023-02-28T22:03:32.133Z,3.92
2023-02-28T22:06:21.415Z,4.14
2023-02-28T22:09:09.880Z,4.27
2023-02-28T22:11:56.135Z,4.48
2023-02-28T22:14:45.255Z,4.35
2023-02-28T22:17:31.809Z,4.45
2023-02-28T22:20:18.100Z,4.43
2023-02-28T22:23:04.715Z,4.31
2023-02-28T22:25:50.717Z,4.41
2023-02-28T22:28:38.036Z,4.20
2023-02-28T22:31:27.928Z,3.72
2023-02-28T22:34:14.712Z,3.86
2023-02-28T22:37:01.110Z,3.92
2023-02-28T22:39:47.444Z,3.69
2023-02-28T22:42:35.086Z,3.34
2023-02-28T22:45:21.144Z,3.56
2023-02-28T22:48:10.973Z,3.60
2023-02-28T22:51:02.753Z,3.46
2023-02-28T22:53:50.593Z,3.13
2023-02-28T22:56:37.226Z,3.32
2023-02-28T22:59:23.549Z,3.16
2023-02-28T23:02:09.996Z,3.39
2023-02-28T23:04:57.505Z,3.79
2023-02-28T23:07:44.113Z,3.52
2023-02-28T23:10:30.679Z,3.47
2023-02-28T23:13:17.023Z,3.08
2023-02-28T23:16:06.019Z,3.82
2023-02-28T23:18:52.653Z,3.76
2023-02-28T23:21:41.477Z,3.27
2023-02-28T23:24:30.105Z,3.22
2023-02-28T23:27:16.331Z,3.15
2023-02-28T23:30:03.046Z,3.73
2023-02-28T23:32:49.467Z,3.99
2023-02-28T23:35:36.234Z,3.53
2023-02-28T23:38:24.210Z,3.18
2023-02-28T23:41:11.390Z,3.39
2023-02-28T23:43:57.945Z,3.73
2023-02-28T23:46:45.252Z,3.99
2023-02-28T23:49:31.417Z,3.17
2023-02-28T23:52:17.704Z,3.12
2023-02-28T23:55:06.004Z,3.12
2023-02-28T23:57:52.733Z,3.21
